sensor_id;sensor_type;location;lat;lon;timestamp;P1;durP1;ratioP1;P2;durP2;ratioP2
583;SDS011;27024;54.068;12.116;2023-03-23T00:00:06;5.47;;;2.70;;
583;SDS011;27024;54.068;12.116;2023-03-23T00:02:34;6.53;;;2.80;;
583;SDS011;27024;54.068;12.116;2023-03-23T00:05:06;6.63;;;2.72;;
583;SDS011;27024;54.068;12.116;2023-03-23T00:07:33;5.00;;;2.38;;
583;SDS011;27024;54.068;12.116;2023-03-23T00:10:00;5.60;;;2.30;;
583;SDS011;27024;54.068;12.116;2023-03-23T00:12:28;5.35;;;2.65;;
583;SDS011;27024;54.068;12.116;2023-03-23T00:15:00;7.55;;;2.50;;
583;SDS011;27024;54.068;12.116;2023-03-23T00:17:27;7.43;;;2.38;;
583;SDS011;27024;54.068;12.116;2023-03-23T00:19:54;4.40;;;2.42;;
583;SDS011;27024;54.068;12.116;2023-03-23T00:22:20;5.25;;;2.50;;
583;SDS011;27024;54.068;12.116;2023-03-23T00:24:47;9.05;;;2.20;;
583;SDS011;27024;54.068;12.116;2023-03-23T00:27:16;4.45;;;2.20;;
583;SDS011;27024;54.068;12.116;2023-03-23T00:29:42;5.25;;;2.40;;
583;SDS011;27024;54.068;12.116;2023-03-23T00:32:10;5.45;;;2.05;;
583;SDS011;27024;54.068;12.116;2023-03-23T00:34:39;6.72;;;2.35;;
583;SDS011;27024;54.068;12.116;2023-03-23T00:37:08;5.60;;;2.38;;
583;SDS011;27024;54.068;12.116;2023-03-23T00:39:34;6.13;;;2.00;;
583;SDS011;27024;54.068;12.116;2023-03-23T00:42:04;4.60;;;2.20;;
583;SDS011;27024;54.068;12.116;2023-03-23T00:44:31;7.43;;;1.95;;
583;SDS011;27024;54.068;12.116;2023-03-23T00:47:00;4.15;;;1.67;;
583;SDS011;27024;54.068;12.116;2023-03-23T00:49:27;4.25;;;1.60;;
583;SDS011;27024;54.068;12.116;2023-03-23T00:51:53;5.03;;;2.42;;
583;SDS011;27024;54.068;12.116;2023-03-23T00:54:21;4.90;;;1.50;;
583;SDS011;27024;54.068;12.116;2023-03-23T00:56:47;6.20;;;2.42;;
583;SDS011;27024;54.068;12.116;2023-03-23T00:59:13;5.72;;;1.52;;
583;SDS011;27024;54.068;12.116;2023-03-23T01:01:39;8.35;;;2.05;;
583;SDS011;27024;54.068;12.116;2023-03-23T01:04:05;8.15;;;2.38;;
583;SDS011;27024;54.068;12.116;2023-03-23T01:06:32;3.72;;;1.83;;
583;SDS011;27024;54.068;12.116;2023-03-23T01:09:12;4.13;;;2.00;;
583;SDS011;27024;54.068;12.116;2023-03-23T01:11:40;5.68;;;2.10;;
583;SDS011;27024;54.068;12.116;2023-03-23T01:14:07;5.30;;;2.00;;
583;SDS011;27024;54.068;12.116;2023-03-23T01:16:33;5.25;;;2.00;;
583;SDS011;27024;54.068;12.116;2023-03-23T01:18:59;5.13;;;2.17;;
583;SDS011;27024;54.068;12.116;2023-03-23T01:21:25;6.70;;;1.90;;
583;SDS011;27024;54.068;12.116;2023-03-23T01:23:51;6.75;;;2.22;;
583;SDS011;27024;54.068;12.116;2023-03-23T01:26:19;6.50;;;2.30;;
583;SDS011;27024;54.068;12.116;2023-03-23T01:28:46;4.45;;;1.98;;
583;SDS011;27024;54.068;12.116;2023-03-23T01:31:13;5.93;;;2.70;;
583;SDS011;27024;54.068;12.116;2023-03-23T01:33:42;6.32;;;2.53;;
583;SDS011;27024;54.068;12.116;2023-03-23T01:36:29;5.95;;;2.58;;
583;SDS011;27024;54.068;12.116;2023-03-23T01:38:58;7.82;;;2.83;;
583;SDS011;27024;54.068;12.116;2023-03-23T01:41:29;7.25;;;2.60;;
583;SDS011;27024;54.068;12.116;2023-03-23T01:46:27;5.38;;;2.75;;
583;SDS011;27024;54.068;12.116;2023-03-23T01:48:55;10.63;;;2.88;;
583;SDS011;27024;54.068;12.116;2023-03-23T01:51:23;10.43;;;2.83;;
583;SDS011;27024;54.068;12.116;2023-03-23T01:53:53;7.03;;;2.83;;
583;SDS011;27024;54.068;12.116;2023-03-23T01:56:22;6.13;;;2.78;;
583;SDS011;27024;54.068;12.116;2023-03-23T01:58:51;6.95;;;2.63;;
583;SDS011;27024;54.068;12.116;2023-03-23T02:01:19;6.65;;;2.80;;
583;SDS011;27024;54.068;12.116;2023-03-23T02:03:46;5.50;;;2.95;;
583;SDS011;27024;54.068;12.116;2023-03-23T02:06:13;8.98;;;2.90;;
583;SDS011;27024;54.068;12.116;2023-03-23T02:08:40;6.88;;;3.15;;
583;SDS011;27024;54.068;12.116;2023-03-23T02:11:11;6.57;;;2.63;;
583;SDS011;27024;54.068;12.116;2023-03-23T02:13:41;8.60;;;3.15;;
583;SDS011;27024;54.068;12.116;2023-03-23T02:16:16;5.00;;;2.53;;
583;SDS011;27024;54.068;12.116;2023-03-23T02:18:53;7.03;;;2.70;;
583;SDS011;27024;54.068;12.116;2023-03-23T02:22:02;7.78;;;2.80;;
583;SDS011;27024;54.068;12.116;2023-03-23T02:24:51;5.60;;;3.08;;
583;SDS011;27024;54.068;12.116;2023-03-23T02:33:13;7.85;;;2.90;;
583;SDS011;27024;54.068;12.116;2023-03-23T02:41:08;7.68;;;3.30;;
583;SDS011;27024;54.068;12.116;2023-03-23T02:43:40;6.25;;;3.42;;
583;SDS011;27024;54.068;12.116;2023-03-23T02:46:10;8.75;;;3.63;;
583;SDS011;27024;54.068;12.116;2023-03-23T02:48:37;8.43;;;3.30;;
583;SDS011;27024;54.068;12.116;2023-03-23T02:51:05;7.57;;;3.63;;
583;SDS011;27024;54.068;12.116;2023-03-23T02:53:33;13.65;;;4.93;;
583;SDS011;27024;54.068;12.116;2023-03-23T02:56:01;10.27;;;4.38;;
583;SDS011;27024;54.068;12.116;2023-03-23T02:58:30;8.40;;;4.05;;
583;SDS011;27024;54.068;12.116;2023-03-23T03:00:56;7.53;;;3.58;;
583;SDS011;27024;54.068;12.116;2023-03-23T03:03:26;7.35;;;3.75;;
583;SDS011;27024;54.068;12.116;2023-03-23T03:11:16;10.45;;;3.85;;
583;SDS011;27024;54.068;12.116;2023-03-23T03:13:47;10.30;;;4.40;;
583;SDS011;27024;54.068;12.116;2023-03-23T03:19:12;8.73;;;4.13;;
583;SDS011;27024;54.068;12.116;2023-03-23T03:21:44;9.35;;;4.25;;
583;SDS011;27024;54.068;12.116;2023-03-23T03:24:13;10.57;;;4.32;;
583;SDS011;27024;54.068;12.116;2023-03-23T03:26:47;9.13;;;4.45;;
583;SDS011;27024;54.068;12.116;2023-03-23T03:29:16;9.52;;;4.53;;
583;SDS011;27024;54.068;12.116;2023-03-23T03:31:44;11.93;;;5.20;;
583;SDS011;27024;54.068;12.116;2023-03-23T03:34:11;10.98;;;5.30;;
583;SDS011;27024;54.068;12.116;2023-03-23T03:36:46;11.50;;;5.15;;
583;SDS011;27024;54.068;12.116;2023-03-23T03:39:13;10.40;;;5.78;;
583;SDS011;27024;54.068;12.116;2023-03-23T03:41:40;11.38;;;5.35;;
583;SDS011;27024;54.068;12.116;2023-03-23T03:44:07;16.02;;;5.88;;
583;SDS011;27024;54.068;12.116;2023-03-23T03:46:34;10.63;;;5.07;;
583;SDS011;27024;54.068;12.116;2023-03-23T03:49:01;11.75;;;5.15;;
583;SDS011;27024;54.068;12.116;2023-03-23T03:51:29;11.15;;;4.93;;
583;SDS011;27024;54.068;12.116;2023-03-23T03:53:55;11.15;;;5.65;;
583;SDS011;27024;54.068;12.116;2023-03-23T03:56:21;11.18;;;5.28;;
583;SDS011;27024;54.068;12.116;2023-03-23T03:58:48;11.38;;;5.80;;
583;SDS011;27024;54.068;12.116;2023-03-23T04:01:16;10.98;;;5.70;;
583;SDS011;27024;54.068;12.116;2023-03-23T04:03:43;13.43;;;5.60;;
583;SDS011;27024;54.068;12.116;2023-03-23T04:06:10;10.45;;;5.75;;
583;SDS011;27024;54.068;12.116;2023-03-23T04:08:38;12.60;;;6.13;;
583;SDS011;27024;54.068;12.116;2023-03-23T04:11:07;12.13;;;5.68;;
583;SDS011;27024;54.068;12.116;2023-03-23T04:13:33;13.55;;;5.63;;
583;SDS011;27024;54.068;12.116;2023-03-23T04:15:59;11.77;;;6.00;;
583;SDS011;27024;54.068;12.116;2023-03-23T04:18:25;12.23;;;5.93;;
583;SDS011;27024;54.068;12.116;2023-03-23T04:20:52;11.73;;;5.75;;
583;SDS011;27024;54.068;12.116;2023-03-23T04:23:18;12.75;;;6.20;;
583;SDS011;27024;54.068;12.116;2023-03-23T04:25:49;12.38;;;5.97;;
583;SDS011;27024;54.068;12.116;2023-03-23T04:30:44;11.30;;;5.85;;
583;SDS011;27024;54.068;12.116;2023-03-23T04:33:11;9.32;;;5.55;;
583;SDS011;27024;54.068;12.116;2023-03-23T04:35:43;13.60;;;5.70;;
583;SDS011;27024;54.068;12.116;2023-03-23T04:38:14;12.05;;;5.93;;
583;SDS011;27024;54.068;12.116;2023-03-23T04:40:42;12.13;;;6.00;;
583;SDS011;27024;54.068;12.116;2023-03-23T04:43:09;11.73;;;6.35;;
583;SDS011;27024;54.068;12.116;2023-03-23T04:45:37;12.00;;;6.40;;
583;SDS011;27024;54.068;12.116;2023-03-23T04:48:07;11.40;;;5.63;;
583;SDS011;27024;54.068;12.116;2023-03-23T04:50:33;11.25;;;6.13;;
583;SDS011;27024;54.068;12.116;2023-03-23T04:53:00;11.43;;;6.40;;
583;SDS011;27024;54.068;12.116;2023-03-23T04:55:30;11.77;;;5.72;;
583;SDS011;27024;54.068;12.116;2023-03-23T04:57:57;11.10;;;5.75;;
583;SDS011;27024;54.068;12.116;2023-03-23T05:00:26;11.07;;;6.07;;
583;SDS011;27024;54.068;12.116;2023-03-23T05:02:52;14.57;;;6.25;;
583;SDS011;27024;54.068;12.116;2023-03-23T05:05:21;12.35;;;6.30;;
583;SDS011;27024;54.068;12.116;2023-03-23T05:07:48;12.00;;;6.15;;
583;SDS011;27024;54.068;12.116;2023-03-23T05:10:14;12.25;;;6.18;;
583;SDS011;27024;54.068;12.116;2023-03-23T05:12:41;11.32;;;6.05;;
583;SDS011;27024;54.068;12.116;2023-03-23T05:15:07;11.13;;;6.35;;
583;SDS011;27024;54.068;12.116;2023-03-23T05:17:35;11.18;;;6.25;;
583;SDS011;27024;54.068;12.116;2023-03-23T05:20:01;10.43;;;6.43;;
583;SDS011;27024;54.068;12.116;2023-03-23T05:22:35;11.98;;;5.45;;
583;SDS011;27024;54.068;12.116;2023-03-23T05:25:01;10.05;;;5.75;;
583;SDS011;27024;54.068;12.116;2023-03-23T05:27:29;11.65;;;6.50;;
583;SDS011;27024;54.068;12.116;2023-03-23T05:29:56;13.50;;;6.60;;
583;SDS011;27024;54.068;12.116;2023-03-23T05:32:26;12.70;;;6.45;;
583;SDS011;27024;54.068;12.116;2023-03-23T05:34:56;12.00;;;6.82;;
583;SDS011;27024;54.068;12.116;2023-03-23T05:37:31;11.52;;;6.13;;
583;SDS011;27024;54.068;12.116;2023-03-23T05:40:00;12.32;;;6.28;;
583;SDS011;27024;54.068;12.116;2023-03-23T05:42:30;10.63;;;5.88;;
583;SDS011;27024;54.068;12.116;2023-03-23T05:44:58;11.77;;;6.30;;
583;SDS011;27024;54.068;12.116;2023-03-23T05:47:24;11.35;;;6.68;;
583;SDS011;27024;54.068;12.116;2023-03-23T05:49:51;13.93;;;6.57;;
583;SDS011;27024;54.068;12.116;2023-03-23T05:52:17;10.73;;;6.57;;
583;SDS011;27024;54.068;12.116;2023-03-23T05:54:44;11.50;;;6.78;;
583;SDS011;27024;54.068;12.116;2023-03-23T05:57:10;11.75;;;6.65;;
583;SDS011;27024;54.068;12.116;2023-03-23T05:59:36;12.88;;;7.07;;
583;SDS011;27024;54.068;12.116;2023-03-23T06:02:02;13.27;;;7.03;;
583;SDS011;27024;54.068;12.116;2023-03-23T06:04:29;10.60;;;6.68;;
583;SDS011;27024;54.068;12.116;2023-03-23T06:06:54;11.88;;;6.28;;
583;SDS011;27024;54.068;12.116;2023-03-23T06:09:21;13.40;;;6.97;;
583;SDS011;27024;54.068;12.116;2023-03-23T06:11:48;13.15;;;6.95;;
583;SDS011;27024;54.068;12.116;2023-03-23T06:14:14;11.27;;;6.63;;
583;SDS011;27024;54.068;12.116;2023-03-23T06:16:41;13.07;;;7.47;;
583;SDS011;27024;54.068;12.116;2023-03-23T06:19:07;12.13;;;6.80;;
583;SDS011;27024;54.068;12.116;2023-03-23T06:21:33;11.23;;;6.53;;
583;SDS011;27024;54.068;12.116;2023-03-23T06:23:59;11.43;;;7.25;;
583;SDS011;27024;54.068;12.116;2023-03-23T06:26:28;11.35;;;7.10;;
583;SDS011;27024;54.068;12.116;2023-03-23T06:28:56;13.18;;;8.35;;
583;SDS011;27024;54.068;12.116;2023-03-23T06:31:23;12.40;;;7.80;;
583;SDS011;27024;54.068;12.116;2023-03-23T06:33:50;12.48;;;7.28;;
583;SDS011;27024;54.068;12.116;2023-03-23T06:36:16;13.30;;;8.18;;
583;SDS011;27024;54.068;12.116;2023-03-23T06:38:42;13.23;;;7.65;;
583;SDS011;27024;54.068;12.116;2023-03-23T06:41:08;12.68;;;7.43;;
583;SDS011;27024;54.068;12.116;2023-03-23T06:43:34;14.07;;;7.95;;
583;SDS011;27024;54.068;12.116;2023-03-23T06:46:03;12.45;;;6.97;;
583;SDS011;27024;54.068;12.116;2023-03-23T06:48:29;14.60;;;7.78;;
583;SDS011;27024;54.068;12.116;2023-03-23T06:50:54;12.13;;;8.02;;
583;SDS011;27024;54.068;12.116;2023-03-23T06:53:20;13.82;;;8.20;;
583;SDS011;27024;54.068;12.116;2023-03-23T06:55:46;13.93;;;7.97;;
583;SDS011;27024;54.068;12.116;2023-03-23T06:58:12;14.57;;;7.72;;
583;SDS011;27024;54.068;12.116;2023-03-23T07:00:38;11.07;;;7.10;;
583;SDS011;27024;54.068;12.116;2023-03-23T07:03:05;19.10;;;10.98;;
583;SDS011;27024;54.068;12.116;2023-03-23T07:05:33;13.48;;;7.00;;
583;SDS011;27024;54.068;12.116;2023-03-23T07:08:00;12.30;;;7.28;;
583;SDS011;27024;54.068;12.116;2023-03-23T07:10:27;11.40;;;7.55;;
583;SDS011;27024;54.068;12.116;2023-03-23T07:12:53;10.23;;;7.25;;
583;SDS011;27024;54.068;12.116;2023-03-23T07:15:19;10.20;;;6.82;;
583;SDS011;27024;54.068;12.116;2023-03-23T07:17:46;11.25;;;6.82;;
583;SDS011;27024;54.068;12.116;2023-03-23T07:20:13;11.43;;;6.55;;
583;SDS011;27024;54.068;12.116;2023-03-23T07:22:39;10.90;;;6.18;;
583;SDS011;27024;54.068;12.116;2023-03-23T07:25:05;10.23;;;6.63;;
583;SDS011;27024;54.068;12.116;2023-03-23T07:27:31;13.88;;;6.88;;
583;SDS011;27024;54.068;12.116;2023-03-23T07:29:57;10.40;;;6.30;;
583;SDS011;27024;54.068;12.116;2023-03-23T07:32:23;9.35;;;5.80;;
583;SDS011;27024;54.068;12.116;2023-03-23T07:34:49;11.90;;;5.82;;
583;SDS011;27024;54.068;12.116;2023-03-23T07:37:15;8.30;;;5.45;;
583;SDS011;27024;54.068;12.116;2023-03-23T07:39:42;10.60;;;5.97;;
583;SDS011;27024;54.068;12.116;2023-03-23T07:42:08;10.05;;;5.72;;
583;SDS011;27024;54.068;12.116;2023-03-23T07:44:34;7.47;;;5.28;;
583;SDS011;27024;54.068;12.116;2023-03-23T07:47:00;7.75;;;5.40;;
583;SDS011;27024;54.068;12.116;2023-03-23T07:49:26;8.40;;;5.10;;
583;SDS011;27024;54.068;12.116;2023-03-23T07:51:52;7.15;;;4.72;;
583;SDS011;27024;54.068;12.116;2023-03-23T07:54:18;8.77;;;4.70;;
583;SDS011;27024;54.068;12.116;2023-03-23T07:56:44;7.32;;;4.95;;
583;SDS011;27024;54.068;12.116;2023-03-23T07:59:11;7.32;;;4.30;;
583;SDS011;27024;54.068;12.116;2023-03-23T08:01:38;6.50;;;3.90;;
583;SDS011;27024;54.068;12.116;2023-03-23T08:04:04;7.53;;;4.28;;
583;SDS011;27024;54.068;12.116;2023-03-23T08:06:34;7.78;;;3.92;;
583;SDS011;27024;54.068;12.116;2023-03-23T08:09:00;6.28;;;3.80;;
583;SDS011;27024;54.068;12.116;2023-03-23T08:11:31;5.32;;;3.17;;
583;SDS011;27024;54.068;12.116;2023-03-23T08:13:58;5.85;;;3.60;;
583;SDS011;27024;54.068;12.116;2023-03-23T08:16:24;5.75;;;3.50;;
583;SDS011;27024;54.068;12.116;2023-03-23T08:18:50;6.05;;;3.28;;
583;SDS011;27024;54.068;12.116;2023-03-23T08:21:17;6.47;;;2.90;;
583;SDS011;27024;54.068;12.116;2023-03-23T08:23:43;6.45;;;3.08;;
583;SDS011;27024;54.068;12.116;2023-03-23T08:26:09;5.38;;;3.10;;
583;SDS011;27024;54.068;12.116;2023-03-23T08:28:35;5.28;;;3.80;;
583;SDS011;27024;54.068;12.116;2023-03-23T08:31:09;4.78;;;2.55;;
583;SDS011;27024;54.068;12.116;2023-03-23T08:33:37;5.03;;;2.50;;
583;SDS011;27024;54.068;12.116;2023-03-23T08:36:04;4.88;;;2.42;;
583;SDS011;27024;54.068;12.116;2023-03-23T08:38:30;4.45;;;2.90;;
583;SDS011;27024;54.068;12.116;2023-03-23T08:41:00;4.28;;;2.30;;
583;SDS011;27024;54.068;12.116;2023-03-23T08:43:28;3.97;;;2.10;;
583;SDS011;27024;54.068;12.116;2023-03-23T08:45:54;5.30;;;2.55;;
583;SDS011;27024;54.068;12.116;2023-03-23T08:48:20;4.85;;;2.10;;
583;SDS011;27024;54.068;12.116;2023-03-23T08:50:48;5.88;;;2.33;;
583;SDS011;27024;54.068;12.116;2023-03-23T08:53:15;4.70;;;2.53;;
583;SDS011;27024;54.068;12.116;2023-03-23T08:55:41;4.53;;;2.20;;
583;SDS011;27024;54.068;12.116;2023-03-23T08:58:08;4.32;;;2.45;;
583;SDS011;27024;54.068;12.116;2023-03-23T09:00:34;4.45;;;2.20;;
583;SDS011;27024;54.068;12.116;2023-03-23T09:03:00;5.90;;;2.50;;
583;SDS011;27024;54.068;12.116;2023-03-23T09:05:27;5.72;;;2.13;;
583;SDS011;27024;54.068;12.116;2023-03-23T09:07:55;4.90;;;2.60;;
583;SDS011;27024;54.068;12.116;2023-03-23T09:10:25;3.80;;;2.10;;
583;SDS011;27024;54.068;12.116;2023-03-23T09:12:52;6.93;;;2.05;;
583;SDS011;27024;54.068;12.116;2023-03-23T09:15:19;5.10;;;2.92;;
583;SDS011;27024;54.068;12.116;2023-03-23T09:17:47;4.97;;;2.20;;
583;SDS011;27024;54.068;12.116;2023-03-23T09:20:16;4.65;;;2.05;;
583;SDS011;27024;54.068;12.116;2023-03-23T09:22:48;5.38;;;2.20;;
583;SDS011;27024;54.068;12.116;2023-03-23T09:25:16;4.65;;;1.90;;
583;SDS011;27024;54.068;12.116;2023-03-23T09:27:46;3.63;;;1.90;;
583;SDS011;27024;54.068;12.116;2023-03-23T09:30:19;4.65;;;1.88;;
583;SDS011;27024;54.068;12.116;2023-03-23T09:32:46;4.82;;;1.90;;
583;SDS011;27024;54.068;12.116;2023-03-23T09:35:16;6.22;;;2.28;;
583;SDS011;27024;54.068;12.116;2023-03-23T09:37:45;4.43;;;1.83;;
583;SDS011;27024;54.068;12.116;2023-03-23T09:40:13;4.97;;;1.83;;
583;SDS011;27024;54.068;12.116;2023-03-23T09:56:52;5.32;;;2.72;;
583;SDS011;27024;54.068;12.116;2023-03-23T09:59:30;3.90;;;1.77;;
583;SDS011;27024;54.068;12.116;2023-03-23T10:02:13;5.50;;;0.55;;
583;SDS011;27024;54.068;12.116;2023-03-23T10:04:46;6.90;;;1.00;;
583;SDS011;27024;54.068;12.116;2023-03-23T10:07:15;4.50;;;0.60;;
583;SDS011;27024;54.068;12.116;2023-03-23T10:09:44;4.50;;;0.50;;
583;SDS011;27024;54.068;12.116;2023-03-23T10:17:41;3.92;;;0.70;;
583;SDS011;27024;54.068;12.116;2023-03-23T10:20:21;4.90;;;1.13;;
583;SDS011;27024;54.068;12.116;2023-03-23T10:22:52;4.88;;;0.70;;
583;SDS011;27024;54.068;12.116;2023-03-23T10:25:37;4.53;;;0.50;;
583;SDS011;27024;54.068;12.116;2023-03-23T10:28:11;4.97;;;0.85;;
583;SDS011;27024;54.068;12.116;2023-03-23T10:30:47;4.80;;;0.75;;
583;SDS011;27024;54.068;12.116;2023-03-23T10:33:22;5.70;;;1.23;;
583;SDS011;27024;54.068;12.116;2023-03-23T10:38:39;5.15;;;0.88;;
583;SDS011;27024;54.068;12.116;2023-03-23T10:41:18;4.63;;;1.20;;
583;SDS011;27024;54.068;12.116;2023-03-23T10:43:45;3.25;;;0.70;;
583;SDS011;27024;54.068;12.116;2023-03-23T10:46:22;3.40;;;1.10;;
583;SDS011;27024;54.068;12.116;2023-03-23T10:49:15;5.68;;;0.77;;
583;SDS011;27024;54.068;12.116;2023-03-23T10:51:46;2.00;;;0.43;;
583;SDS011;27024;54.068;12.116;2023-03-23T10:54:35;4.15;;;0.63;;
583;SDS011;27024;54.068;12.116;2023-03-23T11:00:19;4.88;;;0.60;;
583;SDS011;27024;54.068;12.116;2023-03-23T11:03:02;3.45;;;0.40;;
583;SDS011;27024;54.068;12.116;2023-03-23T11:05:35;4.53;;;0.77;;
583;SDS011;27024;54.068;12.116;2023-03-23T11:08:03;6.05;;;0.50;;
583;SDS011;27024;54.068;12.116;2023-03-23T11:10:37;3.83;;;0.50;;
583;SDS011;27024;54.068;12.116;2023-03-23T11:13:09;1.52;;;0.40;;
583;SDS011;27024;54.068;12.116;2023-03-23T11:15:40;1.88;;;0.63;;
583;SDS011;27024;54.068;12.116;2023-03-23T11:18:25;3.28;;;0.60;;
583;SDS011;27024;54.068;12.116;2023-03-23T11:20:59;2.88;;;1.00;;
583;SDS011;27024;54.068;12.116;2023-03-23T11:23:29;2.85;;;0.60;;
583;SDS011;27024;54.068;12.116;2023-03-23T11:29:21;3.05;;;0.50;;
583;SDS011;27024;54.068;12.116;2023-03-23T11:32:09;3.30;;;1.25;;
583;SDS011;27024;54.068;12.116;2023-03-23T11:34:41;4.97;;;1.08;;
583;SDS011;27024;54.068;12.116;2023-03-23T11:37:10;2.97;;;1.50;;
583;SDS011;27024;54.068;12.116;2023-03-23T11:40:00;3.33;;;1.02;;
583;SDS011;27024;54.068;12.116;2023-03-23T11:42:55;4.75;;;1.48;;
583;SDS011;27024;54.068;12.116;2023-03-23T11:45:30;4.60;;;1.05;;
583;SDS011;27024;54.068;12.116;2023-03-23T11:58:38;5.13;;;1.23;;
583;SDS011;27024;54.068;12.116;2023-03-23T12:01:06;7.45;;;1.40;;
583;SDS011;27024;54.068;12.116;2023-03-23T12:09:08;4.03;;;1.33;;
583;SDS011;27024;54.068;12.116;2023-03-23T12:20:29;8.27;;;1.80;;
583;SDS011;27024;54.068;12.116;2023-03-23T12:23:01;5.82;;;1.42;;
583;SDS011;27024;54.068;12.116;2023-03-23T12:43:58;3.58;;;1.00;;
583;SDS011;27024;54.068;12.116;2023-03-23T12:49:01;5.80;;;1.00;;
583;SDS011;27024;54.068;12.116;2023-03-23T12:51:33;7.40;;;1.20;;
583;SDS011;27024;54.068;12.116;2023-03-23T12:57:04;5.15;;;1.20;;
583;SDS011;27024;54.068;12.116;2023-03-23T13:06:09;4.63;;;0.70;;
583;SDS011;27024;54.068;12.116;2023-03-23T13:09:07;6.00;;;1.10;;
583;SDS011;27024;54.068;12.116;2023-03-23T13:11:36;8.95;;;1.10;;
583;SDS011;27024;54.068;12.116;2023-03-23T13:14:10;8.48;;;1.38;;
583;SDS011;27024;54.068;12.116;2023-03-23T13:17:03;8.10;;;1.00;;
583;SDS011;27024;54.068;12.116;2023-03-23T13:28:02;9.18;;;1.10;;
583;SDS011;27024;54.068;12.116;2023-03-23T13:30:28;7.70;;;1.40;;
583;SDS011;27024;54.068;12.116;2023-03-23T13:33:02;7.88;;;1.30;;
583;SDS011;27024;54.068;12.116;2023-03-23T13:35:33;7.97;;;0.88;;
583;SDS011;27024;54.068;12.116;2023-03-23T13:38:11;5.68;;;1.02;;
583;SDS011;27024;54.068;12.116;2023-03-23T13:40:46;6.10;;;0.95;;
583;SDS011;27024;54.068;12.116;2023-03-23T13:43:12;7.85;;;1.38;;
583;SDS011;27024;54.068;12.116;2023-03-23T13:45:45;9.93;;;1.58;;
583;SDS011;27024;54.068;12.116;2023-03-23T13:50:57;8.38;;;1.33;;
583;SDS011;27024;54.068;12.116;2023-03-23T13:53:42;7.32;;;1.02;;
583;SDS011;27024;54.068;12.116;2023-03-23T13:56:16;7.65;;;1.30;;
583;SDS011;27024;54.068;12.116;2023-03-23T13:58:47;8.00;;;1.13;;
583;SDS011;27024;54.068;12.116;2023-03-23T14:01:29;7.90;;;1.17;;
583;SDS011;27024;54.068;12.116;2023-03-23T14:03:59;6.85;;;1.10;;
583;SDS011;27024;54.068;12.116;2023-03-23T14:06:26;6.10;;;1.17;;
583;SDS011;27024;54.068;12.116;2023-03-23T14:09:04;5.95;;;1.17;;
583;SDS011;27024;54.068;12.116;2023-03-23T14:11:44;6.85;;;1.65;;
583;SDS011;27024;54.068;12.116;2023-03-23T14:14:26;4.95;;;0.90;;
583;SDS011;27024;54.068;12.116;2023-03-23T14:17:06;8.45;;;1.10;;
583;SDS011;27024;54.068;12.116;2023-03-23T14:19:40;7.00;;;1.55;;
583;SDS011;27024;54.068;12.116;2023-03-23T14:22:23;7.32;;;1.30;;
583;SDS011;27024;54.068;12.116;2023-03-23T14:24:51;9.93;;;1.58;;
583;SDS011;27024;54.068;12.116;2023-03-23T14:27:23;8.48;;;1.38;;
583;SDS011;27024;54.068;12.116;2023-03-23T14:29:59;9.85;;;1.08;;
583;SDS011;27024;54.068;12.116;2023-03-23T14:32:27;6.53;;;0.80;;
583;SDS011;27024;54.068;12.116;2023-03-23T14:34:55;6.70;;;1.10;;
583;SDS011;27024;54.068;12.116;2023-03-23T14:37:21;8.70;;;1.25;;
583;SDS011;27024;54.068;12.116;2023-03-23T14:39:52;6.45;;;1.33;;
583;SDS011;27024;54.068;12.116;2023-03-23T14:42:20;8.95;;;1.42;;
583;SDS011;27024;54.068;12.116;2023-03-23T14:44:55;8.13;;;1.17;;
583;SDS011;27024;54.068;12.116;2023-03-23T14:49:57;7.28;;;1.83;;
583;SDS011;27024;54.068;12.116;2023-03-23T14:52:26;10.77;;;2.08;;
583;SDS011;27024;54.068;12.116;2023-03-23T14:54:53;9.70;;;2.42;;
583;SDS011;27024;54.068;12.116;2023-03-23T14:57:26;8.43;;;1.42;;
583;SDS011;27024;54.068;12.116;2023-03-23T14:59:54;9.25;;;2.10;;
583;SDS011;27024;54.068;12.116;2023-03-23T15:02:24;8.43;;;1.92;;
583;SDS011;27024;54.068;12.116;2023-03-23T15:04:58;9.55;;;2.00;;
583;SDS011;27024;54.068;12.116;2023-03-23T15:07:31;12.65;;;2.92;;
583;SDS011;27024;54.068;12.116;2023-03-23T15:10:00;10.13;;;2.20;;
583;SDS011;27024;54.068;12.116;2023-03-23T15:12:28;6.68;;;1.67;;
583;SDS011;27024;54.068;12.116;2023-03-23T15:14:58;7.70;;;2.00;;
583;SDS011;27024;54.068;12.116;2023-03-23T15:17:31;9.43;;;1.80;;
583;SDS011;27024;54.068;12.116;2023-03-23T15:20:08;9.57;;;1.98;;
583;SDS011;27024;54.068;12.116;2023-03-23T15:23:04;8.23;;;1.90;;
583;SDS011;27024;54.068;12.116;2023-03-23T15:25:33;7.78;;;2.25;;
583;SDS011;27024;54.068;12.116;2023-03-23T15:30:31;8.18;;;2.22;;
583;SDS011;27024;54.068;12.116;2023-03-23T15:33:20;6.88;;;1.48;;
583;SDS011;27024;54.068;12.116;2023-03-23T15:35:52;7.22;;;1.17;;
583;SDS011;27024;54.068;12.116;2023-03-23T15:38:31;7.80;;;1.40;;
583;SDS011;27024;54.068;12.116;2023-03-23T15:40:59;8.13;;;1.80;;
583;SDS011;27024;54.068;12.116;2023-03-23T15:43:34;8.02;;;1.80;;
583;SDS011;27024;54.068;12.116;2023-03-23T15:46:02;7.25;;;1.65;;
583;SDS011;27024;54.068;12.116;2023-03-23T15:48:45;10.93;;;2.03;;
583;SDS011;27024;54.068;12.116;2023-03-23T15:51:14;8.68;;;1.48;;
583;SDS011;27024;54.068;12.116;2023-03-23T15:53:41;7.88;;;1.85;;
583;SDS011;27024;54.068;12.116;2023-03-23T15:56:08;5.60;;;1.90;;
583;SDS011;27024;54.068;12.116;2023-03-23T15:58:37;8.45;;;1.23;;
583;SDS011;27024;54.068;12.116;2023-03-23T16:01:07;8.05;;;1.50;;
583;SDS011;27024;54.068;12.116;2023-03-23T16:03:55;8.90;;;1.52;;
583;SDS011;27024;54.068;12.116;2023-03-23T16:06:25;8.43;;;1.90;;
583;SDS011;27024;54.068;12.116;2023-03-23T16:08:53;8.30;;;1.65;;
583;SDS011;27024;54.068;12.116;2023-03-23T16:11:22;6.55;;;1.52;;
583;SDS011;27024;54.068;12.116;2023-03-23T16:13:51;12.27;;;2.17;;
583;SDS011;27024;54.068;12.116;2023-03-23T16:16:29;6.60;;;1.38;;
583;SDS011;27024;54.068;12.116;2023-03-23T16:19:02;5.70;;;1.25;;
583;SDS011;27024;54.068;12.116;2023-03-23T16:21:31;6.50;;;1.50;;
583;SDS011;27024;54.068;12.116;2023-03-23T16:23:57;6.85;;;1.10;;
583;SDS011;27024;54.068;12.116;2023-03-23T16:26:24;6.90;;;1.10;;
583;SDS011;27024;54.068;12.116;2023-03-23T16:28:51;2.95;;;0.80;;
583;SDS011;27024;54.068;12.116;2023-03-23T16:31:31;2.65;;;0.80;;
583;SDS011;27024;54.068;12.116;2023-03-23T16:33:58;3.38;;;0.70;;
583;SDS011;27024;54.068;12.116;2023-03-23T16:36:25;3.22;;;0.73;;
583;SDS011;27024;54.068;12.116;2023-03-23T16:38:52;5.13;;;1.05;;
583;SDS011;27024;54.068;12.116;2023-03-23T16:41:20;5.18;;;1.02;;
583;SDS011;27024;54.068;12.116;2023-03-23T16:43:47;6.30;;;1.48;;
583;SDS011;27024;54.068;12.116;2023-03-23T16:46:13;4.50;;;0.90;;
583;SDS011;27024;54.068;12.116;2023-03-23T16:48:40;8.77;;;1.40;;
583;SDS011;27024;54.068;12.116;2023-03-23T16:51:07;6.65;;;1.58;;
583;SDS011;27024;54.068;12.116;2023-03-23T16:53:34;5.32;;;1.02;;
583;SDS011;27024;54.068;12.116;2023-03-23T16:56:02;3.85;;;0.85;;
583;SDS011;27024;54.068;12.116;2023-03-23T16:58:30;4.95;;;0.80;;
583;SDS011;27024;54.068;12.116;2023-03-23T17:00:57;7.15;;;0.73;;
583;SDS011;27024;54.068;12.116;2023-03-23T17:03:24;6.13;;;0.70;;
583;SDS011;27024;54.068;12.116;2023-03-23T17:05:51;4.50;;;0.80;;
583;SDS011;27024;54.068;12.116;2023-03-23T17:08:18;5.78;;;0.88;;
583;SDS011;27024;54.068;12.116;2023-03-23T17:10:46;3.42;;;0.55;;
583;SDS011;27024;54.068;12.116;2023-03-23T17:13:13;3.72;;;0.73;;
583;SDS011;27024;54.068;12.116;2023-03-23T17:15:41;3.35;;;1.13;;
583;SDS011;27024;54.068;12.116;2023-03-23T17:18:12;4.47;;;0.60;;